Online since October of 2007


Bigbaywx more information Bigbaywx


mount mesnard more information Mount Mesnard


visit our other weather sites:

Template documentation
and downloads

And another site


CBI


there are no active watches, warnings or advisories

nearby metar reports

   
KSAW - Sawyer, Michigan
updated: Aug 17 2022 6:47 am
clear  
clear  
   wind: calm
wind: calm
temperature: 50°F
dew point: 48.2°F
humidity: 94%
barometer: 30.19 inHg
clouds: clear
visibility: 10 mi
cloud details: clear
KSAW 171047Z 00000KT 10SM CLR 10/09 A3019
KESC - Escanaba, Michigan
updated: Aug 17 2022 6:26 am
mist, clear  
mist, clear  
   wind: west 3.5 mph
wind: west 3.5 mph
temperature: 51.8°F
dew point: 51.8°F
humidity: 100%
barometer: 30.17 inHg
clouds: clear
visibility: 3 mi
cloud details: clear
KESC 171026Z AUTO 28003KT 3SM BR CLR 11/11 A3017 RMK AO2
KIMT - Iron Mountain, MI
updated: Aug 17 2022 5:54 am
clear  
clear  
   wind: calm
wind: calm
temperature: 55.4°F
dew point: 53.6°F
humidity: 94%
barometer: 30.17 inHg
clouds: clear
visibility: 8 mi
cloud details: clear
KIMT 170954Z AUTO 00000KT 8SM CLR 13/12 A3017 RMK AO2 SLP215 T01280117
KGRB - Green Bay, WI
updated: Aug 17 2022 5:53 am
clear  
clear  
   wind: calm
wind: calm
temperature: 57.2°F
dew point: 53.6°F
humidity: 88%
barometer: 30.16 inHg
clouds: clear
visibility: 10 mi
cloud details: clear
KGRB 170953Z AUTO 00000KT 10SM CLR 14/12 A3016 RMK AO2 SLP211 T01440122
KDET - Detroit, MI
updated: Aug 17 2022 5:53 am
clear  
clear  
   wind: north 5.8 mph
wind: north 5.8 mph
temperature: 64.4°F
dew point: 59°F
humidity: 83%
barometer: 30.1 inHg
clouds: clear
visibility: 10 mi
cloud details: clear
KDET 170953Z 36005KT 10SM CLR 18/15 A3010 RMK AO2 SLP189 T01780150
 

script developed by  Saratoga-weather.org adapted for the template by  Weerstation Leuven

you find our weather info also at:

Weather Underground

midwestern weather network

WeatherlinkIP

Citizen Weather Observer Program (CWOP)

equipment we use:

weather-station
Davis VP2

weather-program
Davis Weatherlink.Com

Davis VP2

Davis Weatherlink.Com